sensor_id;sensor_type;location;lat;lon;timestamp;P1;durP1;ratioP1;P2;durP2;ratioP2
64653;SDS011;51065;48.884;12.598;2022-07-22T00:00:32;19.33;;;9.57;;
64653;SDS011;51065;48.884;12.598;2022-07-22T00:02:58;19.50;;;9.77;;
64653;SDS011;51065;48.884;12.598;2022-07-22T00:05:23;20.42;;;10.65;;
64653;SDS011;51065;48.884;12.598;2022-07-22T00:07:49;22.27;;;10.48;;
64653;SDS011;51065;48.884;12.598;2022-07-22T00:10:14;21.08;;;11.90;;
64653;SDS011;51065;48.884;12.598;2022-07-22T00:12:40;19.88;;;10.40;;
64653;SDS011;51065;48.884;12.598;2022-07-22T00:15:07;20.13;;;11.10;;
64653;SDS011;51065;48.884;12.598;2022-07-22T00:17:33;19.95;;;10.68;;
64653;SDS011;51065;48.884;12.598;2022-07-22T00:20:01;19.58;;;10.85;;
64653;SDS011;51065;48.884;12.598;2022-07-22T00:22:28;20.23;;;10.60;;
64653;SDS011;51065;48.884;12.598;2022-07-22T00:24:54;18.40;;;10.18;;
64653;SDS011;51065;48.884;12.598;2022-07-22T00:27:19;20.85;;;10.18;;
64653;SDS011;51065;48.884;12.598;2022-07-22T00:29:45;19.92;;;10.57;;
64653;SDS011;51065;48.884;12.598;2022-07-22T00:32:10;21.80;;;11.18;;
64653;SDS011;51065;48.884;12.598;2022-07-22T00:34:36;20.88;;;11.50;;
64653;SDS011;51065;48.884;12.598;2022-07-22T00:37:02;19.90;;;10.75;;
64653;SDS011;51065;48.884;12.598;2022-07-22T00:39:28;19.23;;;10.35;;
64653;SDS011;51065;48.884;12.598;2022-07-22T00:41:54;20.55;;;11.20;;
64653;SDS011;51065;48.884;12.598;2022-07-22T00:44:19;20.48;;;10.70;;
64653;SDS011;51065;48.884;12.598;2022-07-22T00:46:46;20.65;;;10.80;;
64653;SDS011;51065;48.884;12.598;2022-07-22T00:49:11;22.08;;;11.05;;
64653;SDS011;51065;48.884;12.598;2022-07-22T00:51:37;21.35;;;11.60;;
64653;SDS011;51065;48.884;12.598;2022-07-22T00:54:04;21.08;;;11.40;;
64653;SDS011;51065;48.884;12.598;2022-07-22T00:56:30;20.55;;;10.68;;
64653;SDS011;51065;48.884;12.598;2022-07-22T00:58:58;22.42;;;11.82;;
64653;SDS011;51065;48.884;12.598;2022-07-22T01:01:25;23.38;;;12.45;;
64653;SDS011;51065;48.884;12.598;2022-07-22T01:03:51;23.52;;;11.43;;
64653;SDS011;51065;48.884;12.598;2022-07-22T01:06:17;20.42;;;11.05;;
64653;SDS011;51065;48.884;12.598;2022-07-22T01:08:42;21.10;;;10.88;;
64653;SDS011;51065;48.884;12.598;2022-07-22T01:13:34;20.55;;;11.70;;
64653;SDS011;51065;48.884;12.598;2022-07-22T01:16:01;21.63;;;11.57;;
64653;SDS011;51065;48.884;12.598;2022-07-22T01:18:28;21.42;;;11.63;;
64653;SDS011;51065;48.884;12.598;2022-07-22T01:20:53;21.60;;;11.65;;
64653;SDS011;51065;48.884;12.598;2022-07-22T01:23:19;22.20;;;12.82;;
64653;SDS011;51065;48.884;12.598;2022-07-22T01:25:44;22.60;;;13.68;;
64653;SDS011;51065;48.884;12.598;2022-07-22T01:28:10;23.05;;;12.70;;
64653;SDS011;51065;48.884;12.598;2022-07-22T01:30:36;22.85;;;12.60;;
64653;SDS011;51065;48.884;12.598;2022-07-22T01:33:01;27.10;;;13.40;;
64653;SDS011;51065;48.884;12.598;2022-07-22T01:35:27;25.13;;;13.18;;
64653;SDS011;51065;48.884;12.598;2022-07-22T01:37:52;24.80;;;14.00;;
64653;SDS011;51065;48.884;12.598;2022-07-22T01:40:18;25.67;;;13.52;;
64653;SDS011;51065;48.884;12.598;2022-07-22T01:42:43;25.13;;;14.15;;
64653;SDS011;51065;48.884;12.598;2022-07-22T01:45:09;25.52;;;14.13;;
64653;SDS011;51065;48.884;12.598;2022-07-22T01:47:35;24.63;;;14.00;;
64653;SDS011;51065;48.884;12.598;2022-07-22T01:50:01;25.90;;;13.60;;
64653;SDS011;51065;48.884;12.598;2022-07-22T01:52:28;24.92;;;13.38;;
64653;SDS011;51065;48.884;12.598;2022-07-22T01:54:53;26.92;;;14.13;;
64653;SDS011;51065;48.884;12.598;2022-07-22T01:57:19;26.55;;;14.63;;
64653;SDS011;51065;48.884;12.598;2022-07-22T01:59:44;29.27;;;16.33;;
64653;SDS011;51065;48.884;12.598;2022-07-22T02:02:10;26.60;;;14.93;;
64653;SDS011;51065;48.884;12.598;2022-07-22T02:04:35;28.08;;;15.60;;
64653;SDS011;51065;48.884;12.598;2022-07-22T02:07:01;26.60;;;15.07;;
64653;SDS011;51065;48.884;12.598;2022-07-22T02:09:27;26.88;;;15.20;;
64653;SDS011;51065;48.884;12.598;2022-07-22T02:11:52;27.52;;;14.43;;
64653;SDS011;51065;48.884;12.598;2022-07-22T02:14:18;26.67;;;14.68;;
64653;SDS011;51065;48.884;12.598;2022-07-22T02:16:44;29.38;;;16.35;;
64653;SDS011;51065;48.884;12.598;2022-07-22T02:19:09;25.38;;;14.43;;
64653;SDS011;51065;48.884;12.598;2022-07-22T02:21:35;26.13;;;14.57;;
64653;SDS011;51065;48.884;12.598;2022-07-22T02:24:01;24.00;;;13.82;;
64653;SDS011;51065;48.884;12.598;2022-07-22T02:26:27;25.30;;;13.73;;
64653;SDS011;51065;48.884;12.598;2022-07-22T02:28:52;28.88;;;15.82;;
64653;SDS011;51065;48.884;12.598;2022-07-22T02:31:18;29.48;;;15.82;;
64653;SDS011;51065;48.884;12.598;2022-07-22T02:33:45;30.10;;;16.50;;
64653;SDS011;51065;48.884;12.598;2022-07-22T02:36:11;31.45;;;14.77;;
64653;SDS011;51065;48.884;12.598;2022-07-22T02:38:37;26.60;;;15.32;;
64653;SDS011;51065;48.884;12.598;2022-07-22T02:41:03;26.30;;;15.50;;
64653;SDS011;51065;48.884;12.598;2022-07-22T02:43:28;27.95;;;14.70;;
64653;SDS011;51065;48.884;12.598;2022-07-22T02:45:54;27.02;;;15.68;;
64653;SDS011;51065;48.884;12.598;2022-07-22T02:48:19;27.33;;;14.70;;
64653;SDS011;51065;48.884;12.598;2022-07-22T02:50:46;28.25;;;14.82;;
64653;SDS011;51065;48.884;12.598;2022-07-22T02:53:11;25.90;;;14.65;;
64653;SDS011;51065;48.884;12.598;2022-07-22T02:55:37;27.45;;;15.50;;
64653;SDS011;51065;48.884;12.598;2022-07-22T02:58:04;27.33;;;15.30;;
64653;SDS011;51065;48.884;12.598;2022-07-22T03:00:30;26.95;;;14.95;;
64653;SDS011;51065;48.884;12.598;2022-07-22T03:02:56;27.25;;;15.10;;
64653;SDS011;51065;48.884;12.598;2022-07-22T03:05:21;25.05;;;15.30;;
64653;SDS011;51065;48.884;12.598;2022-07-22T03:07:47;26.95;;;15.27;;
64653;SDS011;51065;48.884;12.598;2022-07-22T03:10:13;26.38;;;15.55;;
64653;SDS011;51065;48.884;12.598;2022-07-22T03:12:39;26.23;;;15.13;;
64653;SDS011;51065;48.884;12.598;2022-07-22T03:15:05;27.23;;;14.48;;
64653;SDS011;51065;48.884;12.598;2022-07-22T03:17:34;26.33;;;14.63;;
64653;SDS011;51065;48.884;12.598;2022-07-22T03:20:02;25.33;;;14.23;;
64653;SDS011;51065;48.884;12.598;2022-07-22T03:22:28;28.20;;;14.88;;
64653;SDS011;51065;48.884;12.598;2022-07-22T03:24:54;29.25;;;16.13;;
64653;SDS011;51065;48.884;12.598;2022-07-22T03:27:20;28.30;;;14.70;;
64653;SDS011;51065;48.884;12.598;2022-07-22T03:29:45;30.60;;;16.70;;
64653;SDS011;51065;48.884;12.598;2022-07-22T03:32:11;27.75;;;16.08;;
64653;SDS011;51065;48.884;12.598;2022-07-22T03:34:36;26.67;;;14.65;;
64653;SDS011;51065;48.884;12.598;2022-07-22T03:37:02;23.90;;;13.75;;
64653;SDS011;51065;48.884;12.598;2022-07-22T03:39:27;26.60;;;14.70;;
64653;SDS011;51065;48.884;12.598;2022-07-22T03:41:53;26.33;;;14.27;;
64653;SDS011;51065;48.884;12.598;2022-07-22T03:44:19;27.48;;;14.00;;
64653;SDS011;51065;48.884;12.598;2022-07-22T03:46:44;23.92;;;13.98;;
64653;SDS011;51065;48.884;12.598;2022-07-22T03:49:10;24.48;;;13.82;;
64653;SDS011;51065;48.884;12.598;2022-07-22T03:51:35;27.50;;;14.73;;
64653;SDS011;51065;48.884;12.598;2022-07-22T03:54:01;27.23;;;14.45;;
64653;SDS011;51065;48.884;12.598;2022-07-22T03:56:27;25.55;;;14.70;;
64653;SDS011;51065;48.884;12.598;2022-07-22T03:58:52;25.05;;;13.48;;
64653;SDS011;51065;48.884;12.598;2022-07-22T04:01:18;28.67;;;14.95;;
64653;SDS011;51065;48.884;12.598;2022-07-22T04:03:44;25.33;;;13.63;;
64653;SDS011;51065;48.884;12.598;2022-07-22T04:06:09;27.67;;;14.27;;
64653;SDS011;51065;48.884;12.598;2022-07-22T04:08:35;26.10;;;14.20;;
64653;SDS011;51065;48.884;12.598;2022-07-22T04:11:00;28.40;;;15.10;;
64653;SDS011;51065;48.884;12.598;2022-07-22T04:13:26;28.55;;;14.40;;
64653;SDS011;51065;48.884;12.598;2022-07-22T04:15:51;24.63;;;13.63;;
64653;SDS011;51065;48.884;12.598;2022-07-22T04:18:17;25.00;;;13.85;;
64653;SDS011;51065;48.884;12.598;2022-07-22T04:20:42;24.83;;;13.55;;
64653;SDS011;51065;48.884;12.598;2022-07-22T04:23:08;25.65;;;14.75;;
64653;SDS011;51065;48.884;12.598;2022-07-22T04:25:34;22.83;;;12.90;;
64653;SDS011;51065;48.884;12.598;2022-07-22T04:27:59;23.67;;;13.50;;
64653;SDS011;51065;48.884;12.598;2022-07-22T04:30:25;23.63;;;12.77;;
64653;SDS011;51065;48.884;12.598;2022-07-22T04:32:51;24.42;;;13.82;;
64653;SDS011;51065;48.884;12.598;2022-07-22T04:35:16;25.85;;;15.18;;
64653;SDS011;51065;48.884;12.598;2022-07-22T04:37:42;26.65;;;15.77;;
64653;SDS011;51065;48.884;12.598;2022-07-22T04:40:08;26.77;;;15.82;;
64653;SDS011;51065;48.884;12.598;2022-07-22T04:42:34;25.95;;;15.05;;
64653;SDS011;51065;48.884;12.598;2022-07-22T04:44:59;23.95;;;13.85;;
64653;SDS011;51065;48.884;12.598;2022-07-22T04:47:25;24.70;;;14.25;;
64653;SDS011;51065;48.884;12.598;2022-07-22T04:49:51;24.48;;;15.00;;
64653;SDS011;51065;48.884;12.598;2022-07-22T04:52:17;24.63;;;14.75;;
64653;SDS011;51065;48.884;12.598;2022-07-22T04:54:43;23.67;;;14.43;;
64653;SDS011;51065;48.884;12.598;2022-07-22T04:57:09;26.25;;;15.43;;
64653;SDS011;51065;48.884;12.598;2022-07-22T04:59:34;25.92;;;14.65;;
64653;SDS011;51065;48.884;12.598;2022-07-22T05:02:00;28.98;;;15.10;;
64653;SDS011;51065;48.884;12.598;2022-07-22T05:04:26;25.75;;;14.93;;
64653;SDS011;51065;48.884;12.598;2022-07-22T05:06:51;26.13;;;15.15;;
64653;SDS011;51065;48.884;12.598;2022-07-22T05:09:17;28.20;;;14.80;;
64653;SDS011;51065;48.884;12.598;2022-07-22T05:11:42;24.27;;;14.82;;
64653;SDS011;51065;48.884;12.598;2022-07-22T05:14:08;25.40;;;15.18;;
64653;SDS011;51065;48.884;12.598;2022-07-22T05:16:35;22.15;;;13.63;;
64653;SDS011;51065;48.884;12.598;2022-07-22T05:19:02;26.65;;;15.55;;
64653;SDS011;51065;48.884;12.598;2022-07-22T05:21:28;26.42;;;15.27;;
64653;SDS011;51065;48.884;12.598;2022-07-22T05:23:53;26.48;;;15.80;;
64653;SDS011;51065;48.884;12.598;2022-07-22T05:26:19;24.48;;;14.88;;
64653;SDS011;51065;48.884;12.598;2022-07-22T05:28:44;23.65;;;13.70;;
64653;SDS011;51065;48.884;12.598;2022-07-22T05:31:10;25.63;;;15.23;;
64653;SDS011;51065;48.884;12.598;2022-07-22T05:33:35;23.08;;;14.50;;
64653;SDS011;51065;48.884;12.598;2022-07-22T05:36:01;25.67;;;14.88;;
64653;SDS011;51065;48.884;12.598;2022-07-22T05:38:27;26.15;;;15.95;;
64653;SDS011;51065;48.884;12.598;2022-07-22T05:40:53;28.00;;;16.17;;
64653;SDS011;51065;48.884;12.598;2022-07-22T05:43:18;28.92;;;16.70;;
64653;SDS011;51065;48.884;12.598;2022-07-22T05:45:44;27.02;;;17.30;;
64653;SDS011;51065;48.884;12.598;2022-07-22T05:48:09;31.17;;;16.67;;
64653;SDS011;51065;48.884;12.598;2022-07-22T05:50:35;26.98;;;17.38;;
64653;SDS011;51065;48.884;12.598;2022-07-22T05:53:01;27.45;;;17.38;;
64653;SDS011;51065;48.884;12.598;2022-07-22T05:55:27;28.23;;;17.02;;
64653;SDS011;51065;48.884;12.598;2022-07-22T05:57:53;25.15;;;16.13;;
64653;SDS011;51065;48.884;12.598;2022-07-22T06:00:18;26.92;;;16.83;;
64653;SDS011;51065;48.884;12.598;2022-07-22T06:02:44;28.30;;;16.58;;
64653;SDS011;51065;48.884;12.598;2022-07-22T06:05:09;27.35;;;15.57;;
64653;SDS011;51065;48.884;12.598;2022-07-22T06:07:35;26.88;;;16.25;;
64653;SDS011;51065;48.884;12.598;2022-07-22T06:10:01;27.50;;;16.55;;
64653;SDS011;51065;48.884;12.598;2022-07-22T06:12:26;26.60;;;16.52;;
64653;SDS011;51065;48.884;12.598;2022-07-22T06:14:52;25.00;;;16.25;;
64653;SDS011;51065;48.884;12.598;2022-07-22T06:17:17;29.83;;;18.70;;
64653;SDS011;51065;48.884;12.598;2022-07-22T06:19:43;26.50;;;16.45;;
64653;SDS011;51065;48.884;12.598;2022-07-22T06:22:08;26.90;;;17.13;;
64653;SDS011;51065;48.884;12.598;2022-07-22T06:24:35;30.67;;;19.85;;
64653;SDS011;51065;48.884;12.598;2022-07-22T06:27:00;29.10;;;18.55;;
64653;SDS011;51065;48.884;12.598;2022-07-22T06:29:26;29.45;;;18.60;;
64653;SDS011;51065;48.884;12.598;2022-07-22T06:31:51;28.67;;;18.70;;
64653;SDS011;51065;48.884;12.598;2022-07-22T06:34:17;28.85;;;16.70;;
64653;SDS011;51065;48.884;12.598;2022-07-22T06:36:43;28.27;;;17.10;;
64653;SDS011;51065;48.884;12.598;2022-07-22T06:39:08;27.23;;;17.45;;
64653;SDS011;51065;48.884;12.598;2022-07-22T06:41:34;28.60;;;17.70;;
64653;SDS011;51065;48.884;12.598;2022-07-22T06:43:59;27.63;;;18.88;;
64653;SDS011;51065;48.884;12.598;2022-07-22T06:46:25;28.10;;;18.80;;
64653;SDS011;51065;48.884;12.598;2022-07-22T06:48:50;29.10;;;19.20;;
64653;SDS011;51065;48.884;12.598;2022-07-22T06:51:16;28.48;;;19.02;;
64653;SDS011;51065;48.884;12.598;2022-07-22T06:53:42;27.00;;;18.35;;
64653;SDS011;51065;48.884;12.598;2022-07-22T06:56:07;30.85;;;19.00;;
64653;SDS011;51065;48.884;12.598;2022-07-22T06:58:33;27.48;;;18.88;;
64653;SDS011;51065;48.884;12.598;2022-07-22T07:00:58;29.65;;;20.00;;
64653;SDS011;51065;48.884;12.598;2022-07-22T07:03:24;27.25;;;18.90;;
64653;SDS011;51065;48.884;12.598;2022-07-22T07:05:50;28.25;;;18.38;;
64653;SDS011;51065;48.884;12.598;2022-07-22T07:08:17;30.02;;;19.23;;
64653;SDS011;51065;48.884;12.598;2022-07-22T07:10:42;26.98;;;17.05;;
64653;SDS011;51065;48.884;12.598;2022-07-22T07:13:08;27.83;;;18.73;;
64653;SDS011;51065;48.884;12.598;2022-07-22T07:15:34;27.00;;;18.20;;
64653;SDS011;51065;48.884;12.598;2022-07-22T07:18:00;27.08;;;17.67;;
64653;SDS011;51065;48.884;12.598;2022-07-22T07:20:25;28.23;;;18.05;;
64653;SDS011;51065;48.884;12.598;2022-07-22T07:22:51;26.80;;;17.15;;
64653;SDS011;51065;48.884;12.598;2022-07-22T07:25:17;25.30;;;16.83;;
64653;SDS011;51065;48.884;12.598;2022-07-22T07:27:43;24.85;;;15.45;;
64653;SDS011;51065;48.884;12.598;2022-07-22T07:30:08;27.63;;;17.60;;
64653;SDS011;51065;48.884;12.598;2022-07-22T07:32:35;27.27;;;16.17;;
64653;SDS011;51065;48.884;12.598;2022-07-22T07:35:01;23.88;;;16.38;;
64653;SDS011;51065;48.884;12.598;2022-07-22T07:37:30;25.13;;;16.58;;
64653;SDS011;51065;48.884;12.598;2022-07-22T07:39:56;26.80;;;18.40;;
64653;SDS011;51065;48.884;12.598;2022-07-22T07:42:22;28.20;;;18.50;;
64653;SDS011;51065;48.884;12.598;2022-07-22T07:44:48;23.67;;;15.05;;
64653;SDS011;51065;48.884;12.598;2022-07-22T07:47:13;22.75;;;15.30;;
64653;SDS011;51065;48.884;12.598;2022-07-22T07:49:42;22.40;;;14.63;;
64653;SDS011;51065;48.884;12.598;2022-07-22T07:52:09;22.17;;;14.40;;
64653;SDS011;51065;48.884;12.598;2022-07-22T07:54:35;20.92;;;13.27;;
64653;SDS011;51065;48.884;12.598;2022-07-22T07:57:01;22.17;;;14.07;;
64653;SDS011;51065;48.884;12.598;2022-07-22T07:59:28;21.77;;;13.82;;
64653;SDS011;51065;48.884;12.598;2022-07-22T08:01:53;20.30;;;13.57;;
64653;SDS011;51065;48.884;12.598;2022-07-22T08:04:19;19.63;;;11.68;;
64653;SDS011;51065;48.884;12.598;2022-07-22T08:06:44;20.75;;;12.27;;
64653;SDS011;51065;48.884;12.598;2022-07-22T08:09:10;19.02;;;11.95;;
64653;SDS011;51065;48.884;12.598;2022-07-22T08:11:35;19.83;;;12.57;;
64653;SDS011;51065;48.884;12.598;2022-07-22T08:14:01;19.50;;;12.02;;
64653;SDS011;51065;48.884;12.598;2022-07-22T08:16:27;23.48;;;13.93;;
64653;SDS011;51065;48.884;12.598;2022-07-22T08:18:52;19.33;;;11.88;;
64653;SDS011;51065;48.884;12.598;2022-07-22T08:21:18;21.10;;;12.52;;
64653;SDS011;51065;48.884;12.598;2022-07-22T08:23:44;21.77;;;12.63;;
64653;SDS011;51065;48.884;12.598;2022-07-22T08:26:09;22.23;;;13.02;;
64653;SDS011;51065;48.884;12.598;2022-07-22T08:28:35;19.77;;;11.32;;
64653;SDS011;51065;48.884;12.598;2022-07-22T08:31:00;18.90;;;12.13;;
64653;SDS011;51065;48.884;12.598;2022-07-22T08:33:26;19.00;;;12.13;;
64653;SDS011;51065;48.884;12.598;2022-07-22T08:35:52;19.08;;;11.30;;
64653;SDS011;51065;48.884;12.598;2022-07-22T08:38:17;19.38;;;12.02;;
64653;SDS011;51065;48.884;12.598;2022-07-22T08:40:43;18.73;;;12.13;;
64653;SDS011;51065;48.884;12.598;2022-07-22T08:43:08;18.67;;;12.10;;
64653;SDS011;51065;48.884;12.598;2022-07-22T08:45:34;18.58;;;11.98;;
64653;SDS011;51065;48.884;12.598;2022-07-22T08:48:00;19.40;;;11.63;;
64653;SDS011;51065;48.884;12.598;2022-07-22T08:50:28;18.92;;;12.00;;
64653;SDS011;51065;48.884;12.598;2022-07-22T08:52:54;17.27;;;10.82;;
64653;SDS011;51065;48.884;12.598;2022-07-22T08:55:20;17.80;;;11.40;;
64653;SDS011;51065;48.884;12.598;2022-07-22T08:57:46;18.08;;;11.25;;
64653;SDS011;51065;48.884;12.598;2022-07-22T09:00:17;17.17;;;11.00;;
64653;SDS011;51065;48.884;12.598;2022-07-22T09:02:45;18.17;;;10.68;;
64653;SDS011;51065;48.884;12.598;2022-07-22T09:05:12;17.95;;;11.00;;
64653;SDS011;51065;48.884;12.598;2022-07-22T09:07:40;17.95;;;10.73;;
64653;SDS011;51065;48.884;12.598;2022-07-22T09:10:12;19.85;;;11.10;;
64653;SDS011;51065;48.884;12.598;2022-07-22T09:12:56;16.88;;;9.93;;
64653;SDS011;51065;48.884;12.598;2022-07-22T09:15:31;16.92;;;10.98;;
64653;SDS011;51065;48.884;12.598;2022-07-22T09:18:00;17.35;;;10.23;;
64653;SDS011;51065;48.884;12.598;2022-07-22T09:20:27;19.17;;;11.40;;
64653;SDS011;51065;48.884;12.598;2022-07-22T09:22:53;17.40;;;11.63;;
64653;SDS011;51065;48.884;12.598;2022-07-22T09:25:33;17.27;;;9.20;;
64653;SDS011;51065;48.884;12.598;2022-07-22T09:33:17;15.07;;;9.52;;
64653;SDS011;51065;48.884;12.598;2022-07-22T09:35:44;15.32;;;9.35;;
64653;SDS011;51065;48.884;12.598;2022-07-22T09:38:12;18.38;;;9.77;;
64653;SDS011;51065;48.884;12.598;2022-07-22T09:40:39;19.42;;;9.95;;
64653;SDS011;51065;48.884;12.598;2022-07-22T09:43:09;15.45;;;9.07;;
64653;SDS011;51065;48.884;12.598;2022-07-22T09:46:11;17.08;;;9.85;;
64653;SDS011;51065;48.884;12.598;2022-07-22T09:48:29;16.20;;;9.77;;
64653;SDS011;51065;48.884;12.598;2022-07-22T09:50:56;13.93;;;9.07;;
64653;SDS011;51065;48.884;12.598;2022-07-22T09:53:23;14.30;;;8.85;;
64653;SDS011;51065;48.884;12.598;2022-07-22T09:55:52;16.73;;;9.75;;
64653;SDS011;51065;48.884;12.598;2022-07-22T09:58:18;19.65;;;9.90;;
64653;SDS011;51065;48.884;12.598;2022-07-22T10:00:44;19.13;;;9.85;;
64653;SDS011;51065;48.884;12.598;2022-07-22T10:03:11;17.50;;;9.52;;
64653;SDS011;51065;48.884;12.598;2022-07-22T10:05:42;15.75;;;9.07;;
64653;SDS011;51065;48.884;12.598;2022-07-22T10:08:08;15.75;;;9.40;;
64653;SDS011;51065;48.884;12.598;2022-07-22T10:10:35;14.60;;;8.77;;
64653;SDS011;51065;48.884;12.598;2022-07-22T10:13:02;16.63;;;9.65;;
64653;SDS011;51065;48.884;12.598;2022-07-22T10:15:30;18.63;;;9.48;;
64653;SDS011;51065;48.884;12.598;2022-07-22T10:18:00;17.58;;;9.50;;
64653;SDS011;51065;48.884;12.598;2022-07-22T10:20:31;15.60;;;8.73;;
64653;SDS011;51065;48.884;12.598;2022-07-22T10:25:26;15.70;;;8.48;;
64653;SDS011;51065;48.884;12.598;2022-07-22T10:28:00;17.43;;;9.00;;
64653;SDS011;51065;48.884;12.598;2022-07-22T10:30:34;17.40;;;9.07;;
64653;SDS011;51065;48.884;12.598;2022-07-22T10:33:06;17.02;;;8.80;;
64653;SDS011;51065;48.884;12.598;2022-07-22T10:35:38;14.57;;;8.02;;
64653;SDS011;51065;48.884;12.598;2022-07-22T10:38:17;13.85;;;8.60;;
64653;SDS011;51065;48.884;12.598;2022-07-22T10:43:18;12.55;;;7.72;;
64653;SDS011;51065;48.884;12.598;2022-07-22T10:45:51;15.30;;;8.55;;
64653;SDS011;51065;48.884;12.598;2022-07-22T10:53:57;12.43;;;7.47;;
64653;SDS011;51065;48.884;12.598;2022-07-22T11:01:29;15.73;;;8.05;;
64653;SDS011;51065;48.884;12.598;2022-07-22T11:03:56;12.70;;;7.85;;
64653;SDS011;51065;48.884;12.598;2022-07-22T11:06:32;13.32;;;7.78;;
64653;SDS011;51065;48.884;12.598;2022-07-22T11:08:59;14.90;;;7.85;;
64653;SDS011;51065;48.884;12.598;2022-07-22T11:14:03;12.75;;;7.40;;
64653;SDS011;51065;48.884;12.598;2022-07-22T11:16:35;14.45;;;8.07;;
64653;SDS011;51065;48.884;12.598;2022-07-22T11:19:02;14.48;;;7.93;;
64653;SDS011;51065;48.884;12.598;2022-07-22T11:21:30;13.57;;;8.02;;
64653;SDS011;51065;48.884;12.598;2022-07-22T11:23:57;16.10;;;7.43;;
64653;SDS011;51065;48.884;12.598;2022-07-22T11:29:05;13.57;;;7.33;;
64653;SDS011;51065;48.884;12.598;2022-07-22T11:31:30;14.23;;;7.70;;
64653;SDS011;51065;48.884;12.598;2022-07-22T11:34:09;14.53;;;7.77;;
64653;SDS011;51065;48.884;12.598;2022-07-22T11:36:38;12.10;;;6.78;;
64653;SDS011;51065;48.884;12.598;2022-07-22T11:39:06;10.70;;;6.77;;
64653;SDS011;51065;48.884;12.598;2022-07-22T11:41:33;12.27;;;6.55;;
64653;SDS011;51065;48.884;12.598;2022-07-22T11:43:59;11.07;;;6.35;;
64653;SDS011;51065;48.884;12.598;2022-07-22T11:46:25;12.27;;;6.25;;
64653;SDS011;51065;48.884;12.598;2022-07-22T11:48:52;12.95;;;6.40;;
64653;SDS011;51065;48.884;12.598;2022-07-22T11:51:19;10.70;;;6.80;;
64653;SDS011;51065;48.884;12.598;2022-07-22T11:53:45;15.75;;;7.07;;
64653;SDS011;51065;48.884;12.598;2022-07-22T11:56:11;11.15;;;5.90;;
64653;SDS011;51065;48.884;12.598;2022-07-22T12:01:09;11.75;;;5.97;;
64653;SDS011;51065;48.884;12.598;2022-07-22T12:03:37;11.77;;;6.50;;
64653;SDS011;51065;48.884;12.598;2022-07-22T12:06:06;11.88;;;6.57;;
64653;SDS011;51065;48.884;12.598;2022-07-22T12:08:44;11.50;;;6.65;;
64653;SDS011;51065;48.884;12.598;2022-07-22T12:11:38;13.07;;;7.18;;
64653;SDS011;51065;48.884;12.598;2022-07-22T12:14:07;12.25;;;6.85;;
64653;SDS011;51065;48.884;12.598;2022-07-22T12:16:35;13.52;;;7.03;;
64653;SDS011;51065;48.884;12.598;2022-07-22T12:19:06;15.00;;;6.57;;
64653;SDS011;51065;48.884;12.598;2022-07-22T12:21:36;11.25;;;6.80;;
64653;SDS011;51065;48.884;12.598;2022-07-22T12:24:41;11.18;;;6.70;;
64653;SDS011;51065;48.884;12.598;2022-07-22T12:27:13;11.52;;;7.03;;
64653;SDS011;51065;48.884;12.598;2022-07-22T12:32:14;11.65;;;6.72;;
64653;SDS011;51065;48.884;12.598;2022-07-22T12:34:59;12.45;;;6.88;;
64653;SDS011;51065;48.884;12.598;2022-07-22T12:37:28;11.80;;;6.45;;
64653;SDS011;51065;48.884;12.598;2022-07-22T12:40:07;10.55;;;6.38;;
64653;SDS011;51065;48.884;12.598;2022-07-22T12:42:38;12.45;;;6.65;;
64653;SDS011;51065;48.884;12.598;2022-07-22T12:45:12;11.52;;;6.30;;
64653;SDS011;51065;48.884;12.598;2022-07-22T12:47:43;12.25;;;6.95;;
64653;SDS011;51065;48.884;12.598;2022-07-22T12:50:35;12.32;;;6.78;;
64653;SDS011;51065;48.884;12.598;2022-07-22T12:53:09;12.18;;;6.15;;
64653;SDS011;51065;48.884;12.598;2022-07-22T12:56:10;14.60;;;6.97;;
64653;SDS011;51065;48.884;12.598;2022-07-22T12:58:32;12.60;;;6.40;;
64653;SDS011;51065;48.884;12.598;2022-07-22T13:00:59;10.25;;;6.10;;
64653;SDS011;51065;48.884;12.598;2022-07-22T13:03:25;11.77;;;6.88;;
64653;SDS011;51065;48.884;12.598;2022-07-22T13:05:53;14.43;;;7.32;;
64653;SDS011;51065;48.884;12.598;2022-07-22T13:08:20;11.98;;;6.82;;
64653;SDS011;51065;48.884;12.598;2022-07-22T13:10:45;11.15;;;6.13;;
64653;SDS011;51065;48.884;12.598;2022-07-22T13:13:11;14.15;;;6.68;;
64653;SDS011;51065;48.884;12.598;2022-07-22T13:15:37;12.68;;;6.70;;
64653;SDS011;51065;48.884;12.598;2022-07-22T13:18:03;14.00;;;7.00;;
64653;SDS011;51065;48.884;12.598;2022-07-22T13:20:29;12.32;;;6.55;;
64653;SDS011;51065;48.884;12.598;2022-07-22T13:22:55;11.38;;;6.43;;
64653;SDS011;51065;48.884;12.598;2022-07-22T13:25:21;14.38;;;7.15;;
64653;SDS011;51065;48.884;12.598;2022-07-22T13:27:46;12.10;;;6.80;;
64653;SDS011;51065;48.884;12.598;2022-07-22T13:30:12;13.57;;;6.50;;
64653;SDS011;51065;48.884;12.598;2022-07-22T13:32:38;10.43;;;6.68;;
64653;SDS011;51065;48.884;12.598;2022-07-22T13:35:04;12.50;;;6.50;;
64653;SDS011;51065;48.884;12.598;2022-07-22T13:37:30;10.73;;;6.60;;
64653;SDS011;51065;48.884;12.598;2022-07-22T13:39:56;10.65;;;6.30;;
64653;SDS011;51065;48.884;12.598;2022-07-22T13:42:21;13.20;;;6.60;;
64653;SDS011;51065;48.884;12.598;2022-07-22T13:44:47;11.82;;;6.50;;
64653;SDS011;51065;48.884;12.598;2022-07-22T13:47:16;11.93;;;6.32;;
64653;SDS011;51065;48.884;12.598;2022-07-22T13:49:42;10.80;;;6.22;;
64653;SDS011;51065;48.884;12.598;2022-07-22T13:52:09;11.57;;;6.03;;
64653;SDS011;51065;48.884;12.598;2022-07-22T13:54:34;12.30;;;6.32;;
64653;SDS011;51065;48.884;12.598;2022-07-22T13:57:00;11.93;;;6.60;;
64653;SDS011;51065;48.884;12.598;2022-07-22T13:59:28;10.07;;;6.10;;
64653;SDS011;51065;48.884;12.598;2022-07-22T14:01:57;11.35;;;6.13;;
64653;SDS011;51065;48.884;12.598;2022-07-22T14:06:49;57.95;;;52.20;;
64653;SDS011;51065;48.884;12.598;2022-07-22T14:09:15;10.80;;;6.28;;
64653;SDS011;51065;48.884;12.598;2022-07-22T14:11:41;12.85;;;6.85;;
64653;SDS011;51065;48.884;12.598;2022-07-22T14:14:06;11.02;;;5.90;;
64653;SDS011;51065;48.884;12.598;2022-07-22T14:16:35;11.10;;;6.33;;
64653;SDS011;51065;48.884;12.598;2022-07-22T14:19:02;11.80;;;6.65;;
64653;SDS011;51065;48.884;12.598;2022-07-22T14:21:30;10.18;;;6.18;;
64653;SDS011;51065;48.884;12.598;2022-07-22T14:23:59;11.38;;;6.03;;
64653;SDS011;51065;48.884;12.598;2022-07-22T14:26:25;15.85;;;6.60;;
64653;SDS011;51065;48.884;12.598;2022-07-22T14:28:51;10.07;;;6.38;;
64653;SDS011;51065;48.884;12.598;2022-07-22T14:31:17;10.82;;;6.50;;
64653;SDS011;51065;48.884;12.598;2022-07-22T14:33:42;12.18;;;6.35;;
64653;SDS011;51065;48.884;12.598;2022-07-22T14:36:08;17.80;;;11.65;;
64653;SDS011;51065;48.884;12.598;2022-07-22T14:38:34;10.57;;;6.47;;
64653;SDS011;51065;48.884;12.598;2022-07-22T14:41:02;10.43;;;6.03;;
64653;SDS011;51065;48.884;12.598;2022-07-22T14:43:28;13.20;;;6.32;;
64653;SDS011;51065;48.884;12.598;2022-07-22T14:45:54;12.15;;;6.18;;
64653;SDS011;51065;48.884;12.598;2022-07-22T14:48:22;12.27;;;6.30;;